Time;durP1;ratioP1;P1;durP2;ratioP2;P2;SDS_P1;SDS_P2;PMS_P1;PMS_P2;Temp;Humidity;BMP_temperature;BMP_pressure;BME280_temperature;BME280_humidity;BME280_pressure;Samples;Min_cycle;Max_cycle;Signal;HPM_P1;HPM_P2
2021/11/02 00:02:14;;;;;;;27.97;15.70;;;;;;;8.14;100.00;99428.84;7391539;19;20427;-60
2021/11/02 00:04:44;;;;;;;17.60;9.83;;;;;;;8.18;100.00;99421.28;7401405;19;20404;-60
2021/11/02 00:07:16;;;;;;;22.17;9.00;;;;;;;8.14;100.00;99429.69;7393178;19;20502;-61
2021/11/02 00:09:51;;;;;;;18.93;7.40;;;;;;;8.03;100.00;99423.34;7399668;19;20376;-60
2021/11/02 00:12:21;;;;;;;12.70;4.60;;;;;;;8.03;100.00;99426.81;7400259;19;20439;-61
2021/11/02 00:14:51;;;;;;;7.20;3.43;;;;;;;7.93;100.00;99420.53;7394673;19;20694;-63
2021/11/02 00:17:23;;;;;;;10.13;5.00;;;;;;;8.22;100.00;99425.66;7400724;19;20404;-61
2021/11/02 00:19:56;;;;;;;9.90;4.43;;;;;;;8.30;100.00;99419.91;7395259;19;20400;-61
2021/11/02 00:22:29;;;;;;;9.00;3.17;;;;;;;7.95;100.00;99426.56;7399077;19;20422;-61
2021/11/02 00:25:04;;;;;;;8.67;3.30;;;;;;;7.73;100.00;99421.59;7394129;19;20900;-61
2021/11/02 00:27:35;;;;;;;7.37;3.17;;;;;;;7.65;100.00;99424.75;7399629;19;20400;-61
2021/11/02 00:30:08;;;;;;;10.43;4.03;;;;;;;7.52;100.00;99427.75;7393737;19;20470;-61
2021/11/02 00:32:37;;;;;;;10.50;4.33;;;;;;;7.81;100.00;99425.28;7397873;19;20729;-61
2021/11/02 00:35:08;;;;;;;8.07;3.30;;;;;;;7.82;100.00;99427.00;7394231;19;20380;-61
2021/11/02 00:37:41;;;;;;;8.67;3.00;;;;;;;7.93;100.00;99425.66;7399694;19;20388;-60
2021/11/02 00:40:13;;;;;;;9.40;3.10;;;;;;;7.70;100.00;99417.25;7392566;19;20498;-60
2021/11/02 00:42:50;;;;;;;8.43;3.17;;;;;;;7.70;100.00;99422.38;7399798;19;20887;-61
2021/11/02 00:45:27;;;;;;;12.03;3.53;;;;;;;7.32;100.00;99429.69;7393682;19;20416;-60
2021/11/02 00:47:57;;;;;;;7.47;3.00;;;;;;;7.16;100.00;99432.59;7399729;19;20398;-60
2021/11/02 00:50:27;;;;;;;9.00;3.30;;;;;;;7.02;100.00;99426.97;7392737;19;20411;-61
2021/11/02 00:52:59;;;;;;;12.13;4.30;;;;;;;6.96;100.00;99431.91;7398209;19;20489;-60
2021/11/02 00:55:29;;;;;;;7.20;3.00;;;;;;;6.74;100.00;99426.03;7392967;19;20419;-60
2021/11/02 00:58:00;;;;;;;7.53;3.20;;;;;;;6.81;100.00;99427.09;7399047;19;20458;-61
2021/11/02 01:00:30;;;;;;;9.93;3.50;;;;;;;6.77;100.00;99427.78;7391958;19;20428;-60
2021/11/02 01:03:00;;;;;;;84.07;44.17;;;;;;;6.77;100.00;99424.38;7398636;19;20481;-61
2021/11/02 01:05:29;;;;;;;41.57;21.50;;;;;;;6.65;100.00;99417.13;7392724;19;20487;-60
2021/11/02 01:08:02;;;;;;;81.47;39.73;;;;;;;6.52;100.00;99416.69;7401897;19;20415;-61
2021/11/02 01:10:32;;;;;;;44.80;18.90;;;;;;;6.42;100.00;99417.16;7390933;19;20492;-60
2021/11/02 01:13:02;;;;;;;35.67;19.83;;;;;;;6.39;100.00;99415.34;7399103;19;20409;-60
2021/11/02 01:15:33;;;;;;;25.10;13.00;;;;;;;6.31;100.00;99415.03;7391564;19;20414;-60
2021/11/02 01:18:02;;;;;;;29.73;12.53;;;;;;;6.30;100.00;99413.31;7399494;19;20388;-60
2021/11/02 01:20:32;;;;;;;24.60;10.43;;;;;;;6.33;100.00;99408.31;7392004;19;20727;-60
2021/11/02 01:23:04;;;;;;;19.07;11.40;;;;;;;6.33;100.00;99408.31;7398201;19;20496;-60
2021/11/02 01:25:34;;;;;;;22.47;11.50;;;;;;;6.31;100.00;99396.25;7391687;19;20411;-60
2021/11/02 01:28:06;;;;;;;16.90;7.67;;;;;;;6.22;100.00;99399.34;7397880;19;20399;-60
2021/11/02 01:30:36;;;;;;;11.03;6.30;;;;;;;6.18;100.00;99398.38;7391157;19;20484;-60
2021/11/02 01:33:06;;;;;;;9.77;5.00;;;;;;;6.20;100.00;99390.72;7396809;19;20414;-60
2021/11/02 01:35:37;;;;;;;8.80;4.10;;;;;;;6.27;100.00;99391.81;7392113;19;20414;-61
2021/11/02 01:38:09;;;;;;;12.80;4.30;;;;;;;6.35;100.00;99388.75;7398815;19;20834;-61
2021/11/02 01:40:39;;;;;;;10.20;3.83;;;;;;;6.30;100.00;99387.69;7390150;19;20488;-61
2021/11/02 01:43:11;;;;;;;10.87;4.27;;;;;;;6.24;100.00;99377.22;7400248;19;20891;-61
2021/11/02 01:45:40;;;;;;;13.20;4.40;;;;;;;6.07;100.00;99390.25;7397950;19;20421;-60
2021/11/02 01:48:10;;;;;;;11.27;3.77;;;;;;;6.05;100.00;99383.34;7410006;19;20401;-61
2021/11/02 01:50:40;;;;;;;7.10;3.73;;;;;;;6.01;100.00;99389.13;7399006;19;20482;-61
2021/11/02 01:53:13;;;;;;;18.03;4.30;;;;;;;5.98;100.00;99389.00;7403312;19;20800;-61
2021/11/02 01:55:42;;;;;;;18.63;4.60;;;;;;;6.04;100.00;99385.03;7398317;19;20419;-61
2021/11/02 01:58:15;;;;;;;5.90;3.60;;;;;;;5.93;100.00;99389.72;7405744;19;20394;-61
2021/11/02 02:00:51;;;;;;;11.70;3.87;;;;;;;6.03;100.00;99382.41;7396568;19;20436;-60
2021/11/02 02:03:31;;;;;;;9.80;4.10;;;;;;;6.07;100.00;99380.00;7403360;19;20440;-61
2021/11/02 02:06:10;;;;;;;12.03;4.67;;;;;;;6.16;100.00;99376.91;7399534;19;20424;-61
2021/11/02 02:08:51;;;;;;;9.30;3.73;;;;;;;6.13;100.00;99386.19;7404297;19;20394;-61
2021/11/02 02:11:24;;;;;;;8.33;3.90;;;;;;;6.08;100.00;99384.34;7398131;19;20886;-61
2021/11/02 02:13:57;;;;;;;12.47;4.03;;;;;;;6.00;100.00;99385.69;7405294;19;20700;-61
2021/11/02 02:16:29;;;;;;;13.80;4.33;;;;;;;6.05;100.00;99388.47;7398600;19;20424;-60
2021/11/02 02:19:02;;;;;;;8.77;4.50;;;;;;;6.06;100.00;99388.50;7404774;19;20385;-61
2021/11/02 02:21:47;;;;;;;11.27;3.70;;;;;;;6.03;100.00;99390.97;7399433;19;20507;-61
2021/11/02 02:24:35;;;;;;;16.77;5.00;;;;;;;6.08;100.00;99389.47;7405072;19;20394;-60
2021/11/02 02:27:14;;;;;;;13.00;4.10;;;;;;;6.06;100.00;99390.22;7397888;19;20417;-60
2021/11/02 02:29:48;;;;;;;7.50;3.60;;;;;;;6.06;100.00;99385.94;7401365;19;20400;-61
2021/11/02 02:32:41;;;;;;;8.77;4.13;;;;;;;6.13;100.00;99387.06;7403055;19;20682;-60
2021/11/02 02:35:13;;;;;;;5.43;3.47;;;;;;;6.01;100.00;99389.97;7399732;19;20504;-60
2021/11/02 02:37:45;;;;;;;14.80;4.33;;;;;;;5.98;100.00;99383.88;7404634;19;20672;-61
2021/11/02 02:40:15;;;;;;;9.07;4.20;;;;;;;6.11;100.00;99385.25;7397103;19;20417;-61
2021/11/02 02:42:47;;;;;;;11.37;4.57;;;;;;;6.12;100.00;99376.75;7402418;19;20420;-61
2021/11/02 02:45:20;;;;;;;9.37;4.10;;;;;;;6.04;100.00;99374.78;7397249;19;20695;-61
2021/11/02 02:47:50;;;;;;;6.37;4.00;;;;;;;5.93;100.00;99374.34;7403665;19;20457;-61
2021/11/02 02:50:21;;;;;;;12.10;4.10;;;;;;;5.92;100.00;99375.16;7394968;19;20482;-61
2021/11/02 02:52:52;;;;;;;9.13;4.40;;;;;;;5.97;100.00;99370.22;7402982;19;20416;-60
2021/11/02 02:55:22;;;;;;;18.73;4.50;;;;;;;5.93;100.00;99376.03;7395216;19;20408;-61
2021/11/02 02:57:52;;;;;;;9.40;4.00;;;;;;;6.04;100.00;99377.34;7403814;19;20662;-60
2021/11/02 03:00:24;;;;;;;11.07;4.23;;;;;;;6.00;100.00;99383.13;7396208;19;20444;-61
2021/11/02 03:02:54;;;;;;;10.60;4.70;;;;;;;5.97;100.00;99379.56;7402273;19;20431;-61
2021/11/02 03:05:26;;;;;;;7.80;4.50;;;;;;;5.87;100.00;99370.66;7394879;19;20439;-61
2021/11/02 03:07:57;;;;;;;9.43;4.10;;;;;;;5.92;100.00;99371.72;7403629;19;20674;-61
2021/11/02 03:10:27;;;;;;;11.37;4.27;;;;;;;5.79;100.00;99373.81;7393348;19;20883;-61
2021/11/02 03:12:58;;;;;;;12.53;4.70;;;;;;;5.88;100.00;99375.84;7402241;19;20424;-61
2021/11/02 03:18:42;;;;;;;9.93;4.20;;;;;;;5.56;100.00;99379.69;7402999;19;20412;-60
2021/11/02 03:57:08;;;;;;;9.13;4.60;;;;;;;5.69;100.00;99371.69;7394480;19;20684;-61
2021/11/02 04:27:13;;;;;;;8.90;4.90;;;;;;;5.72;100.00;99366.72;7397068;19;20694;-60
2021/11/02 04:30:14;;;;;;;12.80;5.17;;;;;;;5.90;100.00;99370.78;7399324;19;20664;-61
2021/11/02 05:49:57;;;;;;;15.93;7.13;;;;;;;5.27;100.00;99373.47;7397282;19;20462;-61
2021/11/02 05:53:05;;;;;;;17.00;6.90;;;;;;;5.21;100.00;99367.22;7396695;19;20407;-61
2021/11/02 05:55:58;;;;;;;17.40;9.97;;;;;;;5.31;100.00;99373.59;7390590;19;20690;-61
2021/11/02 05:58:31;;;;;;;14.23;7.40;;;;;;;5.22;100.00;99374.06;7399980;19;20862;-61
2021/11/02 06:01:07;;;;;;;12.33;6.23;;;;;;;4.86;100.00;99376.06;7389621;19;20423;-61
2021/11/02 06:03:53;;;;;;;14.20;7.13;;;;;;;5.03;100.00;99378.44;7397215;19;20434;-61
2021/11/02 06:06:37;;;;;;;16.13;7.90;;;;;;;5.26;100.00;99371.75;7391155;19;20411;-61
2021/11/02 06:09:18;;;;;;;27.47;15.10;;;;;;;5.91;100.00;99367.41;7397373;19;20399;-61
2021/11/02 06:28:30;;;;;;;11.67;5.30;;;;;;;4.96;100.00;99381.53;7394133;19;20428;-61
2021/11/02 06:31:05;;;;;;;10.80;6.33;;;;;;;4.96;100.00;99376.44;7394218;19;20493;-60
2021/11/02 06:33:48;;;;;;;11.57;5.10;;;;;;;4.95;100.00;99387.47;7402478;19;20468;-61
2021/11/02 06:48:09;;;;;;;11.03;5.77;;;;;;;5.00;100.00;99394.53;7403483;19;20392;-61
2021/11/02 06:53:50;;;;;;;12.37;5.40;;;;;;;5.06;100.00;99405.81;7400076;19;20420;-61
2021/11/02 07:18:37;;;;;;;15.33;5.70;;;;;;;5.11;100.00;99429.91;7402463;19;20394;-61
2021/11/02 07:21:09;;;;;;;20.37;6.27;;;;;;;5.13;100.00;99433.41;7393663;19;20483;-60
2021/11/02 07:23:50;;;;;;;13.60;6.93;;;;;;;5.23;100.00;99424.44;7401054;19;20415;-61
2021/11/02 07:26:37;;;;;;;12.10;5.87;;;;;;;5.34;100.00;99432.56;7395697;19;20437;-61
2021/11/02 08:47:04;;;;;;;29.03;12.83;;;;;;;6.89;100.00;99373.53;7392965;19;20870;-61
2021/11/02 08:49:39;;;;;;;96.27;22.07;;;;;;;7.42;100.00;99360.75;7399866;19;20452;-60
2021/11/02 08:52:09;;;;;;;49.03;16.57;;;;;;;7.59;100.00;99368.09;7388317;19;20701;-60
2021/11/02 08:54:39;;;;;;;69.07;11.60;;;;;;;6.96;100.00;99369.47;7402756;19;20480;-60
2021/11/02 08:57:09;;;;;;;20.40;6.83;;;;;;;6.65;100.00;99365.88;7393145;19;20722;-60
2021/11/02 08:59:39;;;;;;;21.87;8.20;;;;;;;6.51;100.00;99368.78;7399140;19;20474;-61
2021/11/02 09:02:12;;;;;;;16.50;7.20;;;;;;;6.50;100.00;99371.31;7390187;19;20499;-61
2021/11/02 09:04:47;;;;;;;15.10;7.27;;;;;;;6.54;100.00;99375.72;7400553;19;20398;-61
2021/11/02 09:07:22;;;;;;;19.03;7.97;;;;;;;6.54;100.00;99376.59;7398975;19;20960;-61
2021/11/02 09:09:52;;;;;;;35.43;13.60;;;;;;;6.67;100.00;99377.03;7392422;19;20403;-60
2021/11/02 09:12:22;;;;;;;13.20;7.40;;;;;;;6.69;100.00;99370.25;7395595;19;20526;-60
2021/11/02 09:14:52;;;;;;;11.03;6.93;;;;;;;6.73;100.00;99372.13;7395260;19;20399;-61
2021/11/02 09:17:25;;;;;;;18.10;6.80;;;;;;;6.80;100.00;99374.06;7400309;19;20399;-61
2021/11/02 09:19:55;;;;;;;19.63;7.80;;;;;;;6.93;100.00;99369.38;7389618;19;20655;-61
2021/11/02 09:22:25;;;;;;;15.23;6.60;;;;;;;6.98;100.00;99367.84;7400599;19;20435;-61
2021/11/02 09:24:55;;;;;;;18.83;7.30;;;;;;;6.97;100.00;99371.25;7390870;19;20453;-61
2021/11/02 09:27:27;;;;;;;14.90;6.43;;;;;;;7.06;100.00;99368.97;7401744;19;20387;-60
2021/11/02 09:29:58;;;;;;;16.00;7.50;;;;;;;7.16;100.00;99370.16;7390405;19;20462;-61
2021/11/02 09:32:33;;;;;;;15.20;7.07;;;;;;;7.21;100.00;99365.16;7395927;19;20923;-61
2021/11/02 09:35:02;;;;;;;61.00;20.70;;;;;;;7.37;100.00;99364.84;7390774;19;20453;-61
2021/11/02 09:37:35;;;;;;;22.70;9.10;;;;;;;7.41;100.00;99366.72;7397997;19;20408;-61
2021/11/02 09:40:12;;;;;;;26.47;8.87;;;;;;;7.43;100.00;99370.19;7390603;19;20399;-61
2021/11/02 09:43:10;;;;;;;24.03;8.20;;;;;;;7.61;100.00;99369.03;7396720;19;20424;-61
2021/11/02 09:46:03;;;;;;;14.90;6.20;;;;;;;7.74;100.00;99369.41;7388695;19;20669;-60
2021/11/02 09:49:13;;;;;;;12.43;5.83;;;;;;;8.10;100.00;99361.06;7397295;19;20402;-61
2021/11/02 09:52:15;;;;;;;14.70;6.73;;;;;;;8.18;100.00;99362.19;7389807;19;20419;-61
2021/11/02 09:55:19;;;;;;;16.73;6.73;;;;;;;8.07;100.00;99368.69;7397716;19;20465;-61
2021/11/02 09:58:14;;;;;;;17.17;7.23;;;;;;;8.14;100.00;99373.19;7397037;19;20678;-60
2021/11/02 10:01:04;;;;;;;26.93;9.20;;;;;;;8.22;100.00;99361.41;7389083;19;20431;-61
2021/11/02 10:04:07;;;;;;;15.53;5.70;;;;;;;8.20;100.00;99378.50;7397026;19;20436;-61
2021/11/02 10:07:06;;;;;;;13.43;5.90;;;;;;;8.19;100.00;99373.31;7400361;19;20445;-61
2021/11/02 10:09:40;;;;;;;19.50;5.90;;;;;;;8.27;100.00;99373.53;7407681;19;20391;-61
2021/11/02 10:12:14;;;;;;;13.93;5.37;;;;;;;8.30;100.00;99377.06;7394169;19;20681;-61
2021/11/02 10:15:01;;;;;;;13.63;6.17;;;;;;;8.43;100.00;99378.31;7404435;19;20394;-61
2021/11/02 10:18:07;;;;;;;33.27;11.60;;;;;;;8.45;100.00;99371.50;7403826;19;20459;-61
2021/11/02 10:21:09;;;;;;;9.00;5.27;;;;;;;8.56;100.00;99381.25;7395069;19;20438;-62
2021/11/02 10:24:11;;;;;;;10.70;5.20;;;;;;;8.59;100.00;99369.34;7399187;19;20427;-62
2021/11/02 10:26:55;;;;;;;29.67;13.00;;;;;;;8.84;100.00;99376.84;7395725;19;20410;-62
2021/11/02 10:29:59;;;;;;;11.00;5.57;;;;;;;8.70;100.00;99377.34;7402383;19;20756;-61
2021/11/02 10:32:32;;;;;;;11.53;4.63;;;;;;;8.71;100.00;99381.66;7398389;19;20411;-61
2021/11/02 10:35:07;;;;;;;9.67;5.03;;;;;;;8.83;100.00;99376.00;7397429;19;20400;-61
2021/11/02 10:38:02;;;;;;;17.40;5.70;;;;;;;8.93;100.00;99387.41;7403983;19;20729;-61
2021/11/02 10:40:39;;;;;;;15.30;6.10;;;;;;;9.07;100.00;99390.31;7394483;19;20673;-60
2021/11/02 10:43:41;;;;;;;23.10;8.70;;;;;;;9.12;100.00;99387.88;7401517;19;20443;-60
2021/11/02 10:46:12;;;;;;;34.47;9.47;;;;;;;9.08;100.00;99386.06;7395917;19;20486;-60
2021/11/02 10:48:43;;;;;;;17.40;5.63;;;;;;;9.01;100.00;99380.75;7406089;19;20805;-61
2021/11/02 10:51:27;;;;;;;21.73;6.00;;;;;;;9.01;100.00;99385.88;7395404;19;20431;-61
2021/11/02 10:54:00;;;;;;;8.80;4.10;;;;;;;9.04;100.00;99388.53;7406969;19;20471;-60
2021/11/02 10:56:40;;;;;;;48.60;9.63;;;;;;;9.06;100.00;99383.44;7396579;19;20436;-59
2021/11/02 10:59:18;;;;;;;10.30;5.90;;;;;;;9.13;100.00;99384.47;7402868;19;20398;-61
2021/11/02 11:01:49;;;;;;;7.97;4.47;;;;;;;9.09;100.00;99387.78;7394789;19;20447;-61
2021/11/02 11:04:22;;;;;;;14.30;5.50;;;;;;;9.08;100.00;99386.06;7399297;19;20390;-61
2021/11/02 11:06:58;;;;;;;11.03;5.77;;;;;;;8.97;100.00;99388.34;7393237;19;20447;-60
2021/11/02 11:09:31;;;;;;;26.73;7.00;;;;;;;8.99;100.00;99392.72;7398533;19;20475;-60
2021/11/02 11:12:03;;;;;;;15.67;6.60;;;;;;;9.08;100.00;99388.63;7390133;19;20490;-60
2021/11/02 11:14:36;;;;;;;10.53;5.87;;;;;;;9.13;100.00;99392.19;7399439;19;20939;-61
2021/11/02 11:17:06;;;;;;;18.07;5.73;;;;;;;9.20;100.00;99391.50;7391894;19;20419;-61
2021/11/02 11:19:42;;;;;;;16.97;5.70;;;;;;;9.42;100.00;99387.78;7399841;19;20395;-61
2021/11/02 11:22:15;;;;;;;16.00;6.67;;;;;;;9.59;100.00;99384.75;7391876;19;20510;-61
2021/11/02 11:24:54;;;;;;;16.73;6.30;;;;;;;9.45;100.00;99387.81;7399710;19;20387;-60
2021/11/02 11:27:25;;;;;;;24.23;10.10;;;;;;;9.59;100.00;99389.91;7395209;19;20410;-61
2021/11/02 11:30:05;;;;;;;22.63;6.60;;;;;;;9.59;100.00;99388.16;7392502;19;20818;-60
2021/11/02 11:32:37;;;;;;;23.87;7.13;;;;;;;9.68;100.00;99378.91;7398511;19;20688;-62
2021/11/02 11:35:08;;;;;;;13.90;6.07;;;;;;;9.96;100.00;99369.25;7392831;19;20386;-61
2021/11/02 11:37:40;;;;;;;21.63;7.50;;;;;;;10.27;100.00;99368.19;7401166;19;20388;-61
2021/11/02 11:40:12;;;;;;;22.63;9.30;;;;;;;10.44;100.00;99369.41;7392392;19;20489;-60
2021/11/02 11:42:42;;;;;;;25.30;13.63;;;;;;;10.61;100.00;99365.44;7400235;19;20429;-60
2021/11/02 11:45:17;;;;;;;26.90;11.47;;;;;;;10.96;100.00;99369.53;7393916;19;20419;-61
2021/11/02 11:47:47;;;;;;;14.43;6.87;;;;;;;10.47;100.00;99374.63;7399911;19;20463;-61
2021/11/02 11:50:22;;;;;;;13.20;7.73;;;;;;;10.39;100.00;99377.91;7395616;19;20507;-60
2021/11/02 11:52:53;;;;;;;18.63;7.73;;;;;;;10.32;100.00;99381.19;7400476;19;20434;-61
2021/11/02 11:55:26;;;;;;;22.03;7.73;;;;;;;10.36;100.00;99379.53;7395832;19;20423;-61
2021/11/02 11:58:14;;;;;;;12.20;6.63;;;;;;;10.26;100.00;99383.63;7404678;19;20387;-61
2021/11/02 12:00:48;;;;;;;32.20;10.77;;;;;;;9.99;100.00;99385.66;7394890;19;20530;-60
2021/11/02 12:03:36;;;;;;;14.57;7.63;;;;;;;10.46;100.00;99386.63;7400140;19;20416;-60
2021/11/02 12:06:09;;;;;;;12.30;6.00;;;;;;;10.54;100.00;99381.66;7393159;19;20491;-61
2021/11/02 12:08:49;;;;;;;14.27;6.63;;;;;;;10.67;100.00;99375.88;7404641;19;20686;-60
2021/11/02 12:11:20;;;;;;;14.27;6.47;;;;;;;10.43;100.00;99380.56;7394067;19;20427;-61
2021/11/02 12:13:50;;;;;;;13.83;7.07;;;;;;;9.98;100.00;99388.19;7401023;19;20771;-60
2021/11/02 12:16:38;;;;;;;11.00;6.20;;;;;;;10.23;100.00;99384.44;7392594;19;20427;-60
2021/11/02 12:19:16;;;;;;;18.57;7.63;;;;;;;10.72;100.00;99385.44;7400755;19;20419;-61
2021/11/02 12:22:03;;;;;;;11.03;5.90;;;;;;;11.05;100.00;99386.88;7393195;19;20451;-61
2021/11/02 12:24:34;;;;;;;15.80;8.30;;;;;;;11.00;100.00;99383.34;7403136;19;20398;-60
2021/11/02 12:27:14;;;;;;;17.10;8.83;;;;;;;10.77;100.00;99379.50;7390577;19;20492;-60
2021/11/02 12:29:44;;;;;;;14.23;7.20;;;;;;;10.62;100.00;99382.66;7399636;19;20481;-58
2021/11/02 12:32:18;;;;;;;12.27;5.83;;;;;;;10.56;100.00;99379.97;7393516;19;20883;-58
2021/11/02 12:35:05;;;;;;;13.43;6.13;;;;;;;10.66;100.00;99379.31;7403129;19;20464;-58
2021/11/02 12:37:36;;;;;;;22.87;9.70;;;;;;;10.94;100.00;99378.97;7399108;19;20423;-58
2021/11/02 12:40:17;;;;;;;11.50;5.80;;;;;;;11.42;100.00;99382.34;7391727;19;20457;-59
2021/11/02 12:42:47;;;;;;;16.93;5.97;;;;;;;11.81;100.00;99389.84;7399136;19;20437;-59
2021/11/02 12:45:19;;;;;;;10.73;5.33;;;;;;;11.87;100.00;99395.09;7392974;19;20492;-59
2021/11/02 12:47:54;;;;;;;23.20;6.97;;;;;;;12.19;100.00;99394.72;7400607;19;20397;-59
2021/11/02 12:50:27;;;;;;;12.70;5.70;;;;;;;12.06;100.00;99395.38;7392645;19;20497;-59
2021/11/02 12:52:59;;;;;;;19.63;6.67;;;;;;;12.63;100.00;99397.84;7399191;19;20486;-60
2021/11/02 12:55:32;;;;;;;10.90;5.37;;;;;;;12.69;100.00;99393.63;7391245;19;20417;-60
2021/11/02 12:58:05;;;;;;;12.13;5.37;;;;;;;12.31;100.00;99391.41;7402836;19;20395;-59
2021/11/02 13:00:44;;;;;;;10.20;5.30;;;;;;;12.11;100.00;99396.31;7390513;19;20486;-58
2021/11/02 13:03:28;;;;;;;12.63;5.10;;;;;;;12.08;100.00;99398.84;7398373;19;20426;-59
2021/11/02 13:06:03;;;;;;;18.57;7.40;;;;;;;11.50;100.00;99386.78;7395439;19;20966;-59
2021/11/02 13:08:41;;;;;;;12.77;4.60;;;;;;;11.13;100.00;99390.47;7400158;19;20392;-59
2021/11/02 13:11:12;;;;;;;8.90;4.23;;;;;;;11.12;100.00;99388.72;7391478;19;20475;-59
2021/11/02 13:14:03;;;;;;;10.93;4.90;;;;;;;11.11;100.00;99389.59;7398037;19;20432;-59
2021/11/02 13:16:35;;;;;;;10.70;5.23;;;;;;;11.06;100.00;99386.03;7391167;19;20667;-58
2021/11/02 13:19:17;;;;;;;12.17;5.10;;;;;;;11.07;100.00;99385.19;7399344;19;20464;-59
2021/11/02 13:21:48;;;;;;;25.07;7.10;;;;;;;10.89;100.00;99384.03;7391436;19;20913;-60
2021/11/02 13:24:24;;;;;;;13.07;5.20;;;;;;;10.85;100.00;99387.41;7399068;19;20415;-58
2021/11/02 13:26:55;;;;;;;9.67;4.80;;;;;;;10.86;100.00;99391.72;7389828;19;20419;-59
2021/11/02 13:29:26;;;;;;;8.17;4.00;;;;;;;10.90;100.00;99390.94;7398163;19;20391;-59
2021/11/02 13:31:57;;;;;;;8.00;3.77;;;;;;;10.87;100.00;99395.19;7391416;19;20721;-57
2021/11/02 13:34:39;;;;;;;5.23;3.43;;;;;;;10.78;100.00;99390.72;7399718;19;20403;-58
2021/11/02 13:37:10;;;;;;;8.73;4.33;;;;;;;10.69;100.00;99393.09;7395136;19;20519;-59
2021/11/02 13:39:59;;;;;;;5.70;3.70;;;;;;;10.60;100.00;99388.63;7406943;19;20459;-59
2021/11/02 13:42:47;;;;;;;8.97;4.33;;;;;;;10.57;100.00;99402.34;7396186;19;20490;-59
2021/11/02 13:45:22;;;;;;;7.90;3.40;;;;;;;10.64;100.00;99396.47;7400211;19;20864;-58
2021/11/02 13:47:52;;;;;;;8.73;3.93;;;;;;;10.64;100.00;99396.47;7409651;19;20719;-59
2021/11/02 13:50:24;;;;;;;10.00;4.40;;;;;;;10.65;100.00;99398.22;7400554;19;20490;-58
2021/11/02 13:52:57;;;;;;;9.97;4.17;;;;;;;10.61;100.00;99391.25;7407105;19;20429;-59
2021/11/02 13:55:27;;;;;;;6.60;4.00;;;;;;;10.47;100.00;99398.69;7401194;19;20447;-59
2021/11/02 13:57:57;;;;;;;9.10;4.73;;;;;;;10.44;100.00;99392.59;7409674;19;20398;-58
2021/11/02 14:00:27;;;;;;;11.70;4.83;;;;;;;10.53;100.00;99390.22;7400073;19;21295;-59
2021/11/02 14:02:57;;;;;;;9.07;4.53;;;;;;;10.54;100.00;99391.97;7407177;19;20427;-58
2021/11/02 14:05:29;;;;;;;12.13;4.40;;;;;;;10.67;100.00;99396.53;7400409;19;20524;-59
2021/11/02 14:07:59;;;;;;;8.00;4.47;;;;;;;10.77;100.00;99391.56;7408859;19;20452;-59
2021/11/02 14:10:31;;;;;;;9.43;4.60;;;;;;;11.04;100.00;99396.34;7394281;19;20522;-58
2021/11/02 14:13:00;;;;;;;10.50;4.73;;;;;;;10.87;100.00;99398.59;7406505;19;20434;-58
2021/11/02 14:15:31;;;;;;;6.40;4.10;;;;;;;10.96;100.00;99403.06;7398506;19;20975;-59
2021/11/02 14:18:14;;;;;;;8.93;4.97;;;;;;;11.14;100.00;99405.13;7409324;19;20397;-58
2021/11/02 14:20:49;;;;;;;9.17;4.03;;;;;;;11.20;100.00;99400.09;7399140;19;20518;-59
2021/11/02 14:23:21;;;;;;;10.50;4.50;;;;;;;11.22;100.00;99397.50;7406490;19;20450;-59
2021/11/02 14:25:51;;;;;;;8.87;4.40;;;;;;;11.18;100.00;99401.75;7400187;19;20498;-59
2021/11/02 14:28:33;;;;;;;14.03;5.67;;;;;;;11.20;100.00;99394.91;7407852;19;20408;-59
2021/11/02 14:31:02;;;;;;;11.63;7.07;;;;;;;11.01;100.00;99396.28;7399264;19;20455;-58
2021/11/02 14:33:46;;;;;;;13.03;6.20;;;;;;;11.02;100.00;99397.19;7405538;19;20420;-59
2021/11/02 14:36:18;;;;;;;8.97;5.50;;;;;;;10.93;100.00;99392.72;7400102;19;20887;-59
2021/11/02 14:38:48;;;;;;;15.10;5.87;;;;;;;10.89;100.00;99394.38;7408422;19;20476;-59
2021/11/02 14:41:32;;;;;;;8.80;5.60;;;;;;;10.89;100.00;99394.38;7398971;19;20458;-59
2021/11/02 14:44:26;;;;;;;10.37;5.23;;;;;;;11.01;100.00;99396.28;7408142;19;20403;-59
2021/11/02 14:46:57;;;;;;;5.57;3.30;;;;;;;11.03;100.00;99396.31;7398869;19;20712;-59
2021/11/02 14:49:46;;;;;;;7.10;4.03;;;;;;;11.44;100.00;99401.31;7407210;19;20667;-59
2021/11/02 14:52:27;;;;;;;7.67;3.97;;;;;;;11.48;100.00;99408.28;7404970;19;20516;-59
2021/11/02 14:54:57;;;;;;;27.10;13.30;;;;;;;11.58;100.00;99398.97;7398809;19;20396;-59
2021/11/02 14:58:02;;;;;;;34.43;17.33;;;;;;;11.56;100.00;99408.41;7407263;19;20465;-59
2021/11/02 15:00:43;;;;;;;23.63;13.90;;;;;;;11.38;100.00;99410.69;7400659;19;20455;-59
2021/11/02 15:03:23;;;;;;;14.30;6.47;;;;;;;11.26;100.00;99417.38;7404253;19;20434;-59
2021/11/02 15:05:53;;;;;;;7.67;3.30;;;;;;;10.99;100.00;99417.75;7398796;19;20435;-59
2021/11/02 15:08:28;;;;;;;6.47;2.33;;;;;;;10.59;100.00;99423.00;7407788;19;20900;-59
2021/11/02 15:10:57;;;;;;;7.37;2.30;;;;;;;10.38;100.00;99417.41;7397985;19;20825;-59
2021/11/02 15:13:27;;;;;;;7.17;2.80;;;;;;;10.33;100.00;99420.72;7405267;19;20495;-59
2021/11/02 15:15:58;;;;;;;5.90;2.13;;;;;;;10.18;100.00;99427.28;7397200;19;20463;-59
2021/11/02 15:18:40;;;;;;;7.40;2.70;;;;;;;10.05;100.00;99426.13;7403639;19;20396;-59
2021/11/02 15:21:11;;;;;;;5.90;2.30;;;;;;;9.93;100.00;99419.00;7394027;19;20419;-59
2021/11/02 15:23:46;;;;;;;10.20;2.50;;;;;;;9.86;100.00;99425.69;7404973;19;20452;-59
2021/11/02 15:26:52;;;;;;;7.40;2.80;;;;;;;9.84;100.00;99424.81;7396057;19;20419;-59
2021/11/02 15:29:23;;;;;;;6.20;2.60;;;;;;;9.71;100.00;99423.63;7402300;19;20727;-59
2021/11/02 15:32:02;;;;;;;5.03;2.47;;;;;;;9.64;100.00;99424.31;7395056;19;20467;-59
2021/11/02 15:34:42;;;;;;;9.30;2.97;;;;;;;9.53;100.00;99429.22;7404852;19;20406;-59
2021/11/02 15:37:13;;;;;;;7.93;2.87;;;;;;;9.43;100.00;99430.69;7395517;19;20421;-59
2021/11/02 15:39:57;;;;;;;6.80;3.80;;;;;;;9.50;100.00;99424.00;7393899;19;20391;-59
2021/11/02 15:42:29;;;;;;;5.90;2.47;;;;;;;9.52;100.00;99422.34;7401212;19;20496;-59
2021/11/02 15:45:00;;;;;;;11.20;3.70;;;;;;;9.48;100.00;99423.06;7393098;19;20432;-59
2021/11/02 15:47:30;;;;;;;8.10;4.80;;;;;;;9.36;100.00;99426.22;7406990;19;20396;-59
2021/11/02 15:50:02;;;;;;;12.17;3.53;;;;;;;9.47;100.00;99423.06;7396261;19;20465;-59
2021/11/02 15:52:33;;;;;;;17.27;7.40;;;;;;;9.44;100.00;99421.28;7403909;19;20503;-60
2021/11/02 15:55:12;;;;;;;21.30;9.97;;;;;;;9.48;100.00;99428.22;7397083;19;20404;-60
2021/11/02 15:57:44;;;;;;;37.27;20.87;;;;;;;9.22;100.00;99425.88;7404482;19;20493;-60
2021/11/02 16:00:15;;;;;;;16.70;8.50;;;;;;;9.12;100.00;99423.91;7394233;19;20425;-57
2021/11/02 16:02:47;;;;;;;9.10;4.90;;;;;;;9.01;100.00;99415.88;7402588;19;20511;-59
2021/11/02 16:05:20;;;;;;;6.40;2.70;;;;;;;8.79;100.00;99428.16;7395516;19;20420;-58
2021/11/02 16:07:52;;;;;;;9.90;3.03;;;;;;;8.67;100.00;99420.97;7401119;19;20394;-59
2021/11/02 16:10:28;;;;;;;7.07;2.80;;;;;;;8.61;100.00;99420.81;7393447;19;20439;-58
2021/11/02 16:12:59;;;;;;;13.63;4.10;;;;;;;8.59;100.00;99417.31;7400583;19;20423;-59
2021/11/02 16:15:31;;;;;;;7.37;3.40;;;;;;;8.55;100.00;99416.34;7393329;19;20427;-59
2021/11/02 16:18:02;;;;;;;8.47;5.47;;;;;;;8.56;100.00;99418.09;7401594;19;20405;-59
2021/11/02 16:20:34;;;;;;;11.33;5.10;;;;;;;8.45;100.00;99430.63;7395183;19;20757;-59
2021/11/02 16:23:06;;;;;;;11.80;3.90;;;;;;;8.43;100.00;99422.00;7399920;19;20475;-59
2021/11/02 16:25:58;;;;;;;9.73;5.03;;;;;;;8.37;100.00;99432.94;7396123;19;20475;-59
2021/11/02 16:28:30;;;;;;;11.00;5.60;;;;;;;8.28;100.00;99426.66;7401132;19;20688;-58
2021/11/02 16:31:02;;;;;;;8.53;4.57;;;;;;;8.20;100.00;99427.31;7393004;19;20422;-59
2021/11/02 16:33:35;;;;;;;12.20;5.00;;;;;;;8.15;100.00;99428.88;7398225;19;20494;-59
2021/11/02 16:36:21;;;;;;;6.07;3.03;;;;;;;8.06;100.00;99423.47;7393240;19;20423;-59
2021/11/02 16:38:52;;;;;;;14.97;5.30;;;;;;;8.05;100.00;99419.16;7400604;19;20479;-59
2021/11/02 16:41:26;;;;;;;11.40;5.37;;;;;;;8.01;100.00;99423.34;7392142;19;20876;-59